createdAt,value
2022-08-15T00:00:20.850Z,3.299999952
2022-08-15T00:01:18.806Z,3.799999952
2022-08-15T00:02:34.810Z,3.599999905
2022-08-15T00:03:20.388Z,3.5
2022-08-15T00:04:34.492Z,3.5
2022-08-15T00:05:22.713Z,3.200000048
2022-08-15T00:06:39.161Z,3.599999905
2022-08-15T00:07:46.177Z,3.400000095
2022-08-15T00:08:50.113Z,3.5
2022-08-15T00:09:54.639Z,3.700000048
2022-08-15T00:11:02.271Z,3.5
2022-08-15T00:11:28.601Z,3.299999952
2022-08-15T00:12:35.446Z,3.200000048
2022-08-15T00:13:30.778Z,3.200000048
2022-08-15T00:14:32.488Z,4
2022-08-15T00:15:34.403Z,3.299999952
2022-08-15T00:16:34.796Z,3.5
2022-08-15T00:17:48.127Z,3.599999905
2022-08-15T00:18:35.869Z,3.200000048
2022-08-15T00:19:37.321Z,3.099999905
2022-08-15T00:20:38.199Z,3.700000048
2022-08-15T00:21:39.091Z,3.299999952
2022-08-15T00:22:39.914Z,2.900000095
2022-08-15T00:23:40.715Z,3.099999905
2022-08-15T00:24:42.164Z,3.099999905
2022-08-15T00:25:42.999Z,2.900000095
2022-08-15T00:26:55.957Z,3
2022-08-15T00:27:44.767Z,2.799999952
2022-08-15T00:28:46.234Z,3.299999952
2022-08-15T00:30:24.102Z,3.299999952
2022-08-15T00:31:18.592Z,3.400000095
2022-08-15T00:32:49.919Z,3.099999905
2022-08-15T00:33:27.254Z,2.900000095
2022-08-15T00:34:39.026Z,3
2022-08-15T00:35:22.667Z,3
2022-08-15T00:36:52.756Z,3.400000095
2022-08-15T00:37:24.491Z,3.200000048
2022-08-15T00:38:28.390Z,3.299999952
2022-08-15T00:39:26.302Z,3.599999905
2022-08-15T00:40:31.728Z,3.400000095
2022-08-15T00:41:28.038Z,3.700000048
2022-08-15T00:42:30.603Z,3.900000095
2022-08-15T00:43:30.783Z,3.099999905
2022-08-15T00:45:00.580Z,3.299999952
2022-08-15T00:45:34.209Z,3.099999905
2022-08-15T00:46:32.954Z,3.400000095
2022-08-15T00:47:38.932Z,3.099999905
2022-08-15T00:48:35.240Z,2.799999952
2022-08-15T00:50:01.472Z,3.200000048
2022-08-15T00:50:37.557Z,3.099999905
2022-08-15T00:51:38.483Z,3.200000048
2022-08-15T00:52:40.511Z,3
2022-08-15T00:53:40.152Z,3.299999952
2022-08-15T00:54:56.920Z,3.099999905
2022-08-15T00:55:42.557Z,3.299999952
2022-08-15T00:56:43.354Z,3.200000048
2022-08-15T00:58:00.736Z,3.099999905
2022-08-15T00:58:55.635Z,2.799999952
2022-08-15T00:59:46.389Z,3.299999952
2022-08-15T01:01:17.751Z,3.299999952
2022-08-15T01:02:23.320Z,3
2022-08-15T01:03:20.094Z,3.200000048
2022-08-15T01:04:20.452Z,2.700000048
2022-08-15T01:05:22.096Z,2.299999952
2022-08-15T01:06:28.215Z,2.700000048
2022-08-15T01:07:23.849Z,2.5
2022-08-15T01:08:30.945Z,2.5
2022-08-15T01:09:25.578Z,2.799999952
2022-08-15T01:10:26.317Z,2.900000095
2022-08-15T01:11:33.897Z,3
2022-08-15T01:12:28.060Z,2.900000095
2022-08-15T01:14:03.252Z,2.299999952
2022-08-15T01:14:55.950Z,2.700000048
2022-08-15T01:15:42.264Z,3.099999905
2022-08-15T01:16:34.108Z,3.400000095
2022-08-15T01:17:33.362Z,3.099999905
2022-08-15T01:18:35.210Z,2.400000095
2022-08-15T01:19:35.834Z,3
2022-08-15T01:20:36.581Z,3.5
2022-08-15T01:21:37.394Z,2.900000095
2022-08-15T01:22:38.270Z,3.099999905
2022-08-15T01:23:54.442Z,2.900000095
2022-08-15T01:25:15.976Z,2.799999952
2022-08-15T01:26:38.830Z,3.099999905
2022-08-15T01:26:46.100Z,3
2022-08-15T01:27:44.236Z,3.200000048
2022-08-15T01:28:45.426Z,3.200000048
2022-08-15T01:31:01.753Z,2.599999905
2022-08-15T01:31:17.566Z,3.099999905
2022-08-15T01:32:19.340Z,3.099999905
2022-08-15T01:33:21.574Z,3.400000095
2022-08-15T01:34:21.219Z,3.599999905
2022-08-15T01:35:22.823Z,3.5
2022-08-15T01:36:32.938Z,3.200000048
2022-08-15T01:37:24.633Z,3.099999905
2022-08-15T01:38:37.151Z,3.299999952
2022-08-15T01:39:26.591Z,3.400000095
2022-08-15T01:40:52.073Z,3.299999952
2022-08-15T01:41:36.418Z,3.400000095
2022-08-15T01:42:29.154Z,3.299999952
2022-08-15T01:43:30.057Z,3.099999905
2022-08-15T01:44:33.364Z,3.5
2022-08-15T01:45:32.626Z,3.299999952
2022-08-15T01:46:33.491Z,3.400000095
2022-08-15T01:47:34.393Z,3.200000048
2022-08-15T01:48:37.165Z,3.5
2022-08-15T01:49:36.154Z,3.900000095
2022-08-15T01:50:37.688Z,3.5
2022-08-15T01:51:38.459Z,3.400000095
2022-08-15T01:52:58.945Z,3.799999952
2022-08-15T01:53:40.237Z,3.5
2022-08-15T01:55:02.411Z,3.599999905
2022-08-15T01:55:44.217Z,3.099999905
2022-08-15T01:56:45.577Z,3.200000048
2022-08-15T01:57:44.906Z,3.299999952
2022-08-15T01:59:16.400Z,3.700000048
2022-08-15T02:00:18.969Z,3.299999952
2022-08-15T02:01:19.031Z,3.200000048
2022-08-15T02:02:42.243Z,2.799999952
2022-08-15T02:03:21.346Z,3.400000095
2022-08-15T02:04:24.119Z,3
2022-08-15T02:05:23.201Z,3.200000048
2022-08-15T02:06:34.867Z,4
2022-08-15T02:07:24.816Z,3.299999952
2022-08-15T02:08:35.399Z,3.700000048
2022-08-15T02:09:38.312Z,3.200000048
2022-08-15T02:10:27.979Z,3.599999905
2022-08-15T02:11:28.400Z,3.400000095
2022-08-15T02:13:04.288Z,3.400000095
2022-08-15T02:13:29.989Z,2.900000095
2022-08-15T02:14:37.960Z,3.299999952
2022-08-15T02:15:32.213Z,3
2022-08-15T02:16:32.960Z,2.799999952
2022-08-15T02:17:33.739Z,3.700000048
2022-08-15T02:18:34.571Z,3.200000048
2022-08-15T02:19:38.226Z,3.200000048
2022-08-15T02:20:39.444Z,3.5
2022-08-15T02:21:38.025Z,3
2022-08-15T02:22:38.751Z,3.599999905
2022-08-15T02:23:40.220Z,3.299999952
2022-08-15T02:24:41.021Z,3.200000048
2022-08-15T02:25:42.747Z,3.200000048
2022-08-15T02:26:43.550Z,3.099999905
2022-08-15T02:27:44.309Z,3.599999905
2022-08-15T02:29:15.987Z,3.400000095
2022-08-15T02:30:17.029Z,3.900000095
2022-08-15T02:31:17.708Z,3.299999952
2022-08-15T02:32:18.851Z,3.200000048
2022-08-15T02:33:19.339Z,3.599999905
2022-08-15T02:34:20.239Z,3.799999952
2022-08-15T02:35:21.861Z,3.799999952
2022-08-15T02:36:31.528Z,3.700000048
2022-08-15T02:37:23.700Z,3.599999905
2022-08-15T02:38:24.445Z,3.900000095
2022-08-15T02:39:25.401Z,3.5
2022-08-15T02:40:44.924Z,3.400000095
2022-08-15T02:41:27.087Z,3.200000048
2022-08-15T02:42:28.002Z,3.099999905
2022-08-15T02:43:29.808Z,3.700000048
2022-08-15T02:44:30.699Z,3.400000095
2022-08-15T02:45:32.295Z,3.299999952
2022-08-15T02:46:33.127Z,3.5
2022-08-15T02:47:34.673Z,3.400000095
2022-08-15T02:48:35.457Z,3.599999905
2022-08-15T02:49:48.228Z,3.599999905
2022-08-15T02:50:37.823Z,3.299999952
2022-08-15T02:51:46.975Z,3.599999905
2022-08-15T02:52:39.552Z,3.299999952
2022-08-15T02:53:47.171Z,3.400000095
2022-08-15T02:54:59.504Z,3.799999952
2022-08-15T02:55:42.814Z,3.299999952
2022-08-15T02:56:43.720Z,3.700000048
2022-08-15T02:57:59.481Z,3.5
2022-08-15T02:59:16.133Z,3.099999905
2022-08-15T03:00:19.400Z,3.5
2022-08-15T03:01:24.207Z,3.099999905
2022-08-15T03:02:30.493Z,3.299999952
2022-08-15T03:03:20.281Z,3
2022-08-15T03:04:27.756Z,3.599999905
2022-08-15T03:05:22.793Z,3.099999905
2022-08-15T03:06:31.932Z,4
2022-08-15T03:07:25.135Z,3.200000048
2022-08-15T03:08:25.868Z,3.099999905
2022-08-15T03:09:33.788Z,3.299999952
2022-08-15T03:10:29.670Z,3.200000048
2022-08-15T03:11:28.428Z,3.700000048
2022-08-15T03:12:32.298Z,3.700000048
2022-08-15T03:13:39.546Z,3.700000048
2022-08-15T03:14:32.929Z,3.799999952
2022-08-15T03:15:34.747Z,3.599999905
2022-08-15T03:16:33.680Z,2.900000095
2022-08-15T03:17:35.044Z,3.299999952
2022-08-15T03:18:35.229Z,3.799999952
2022-08-15T03:19:39.451Z,3.299999952
2022-08-15T03:20:37.826Z,2.900000095
2022-08-15T03:21:38.666Z,3.599999905
2022-08-15T03:22:45.651Z,3.099999905
2022-08-15T03:23:41.560Z,4.199999809
2022-08-15T03:24:41.436Z,3.299999952
2022-08-15T03:25:49.237Z,3.099999905
2022-08-15T03:26:46.917Z,3.599999905
2022-08-15T03:28:27.763Z,3
2022-08-15T03:29:16.203Z,3
2022-08-15T03:30:19.914Z,3.200000048
2022-08-15T03:31:17.724Z,3.200000048
2022-08-15T03:32:32.804Z,3.5
2022-08-15T03:33:19.231Z,3.400000095
2022-08-15T03:34:29.010Z,3.599999905
2022-08-15T03:35:21.331Z,3.299999952
2022-08-15T03:36:23.519Z,3.599999905
2022-08-15T03:37:23.805Z,3.5
2022-08-15T03:38:48.590Z,2.700000048
2022-08-15T03:39:25.371Z,3.299999952
2022-08-15T03:40:29.201Z,3.400000095
2022-08-15T03:41:27.185Z,3.599999905
2022-08-15T03:42:36.523Z,3.599999905
2022-08-15T03:43:38.315Z,3.400000095
2022-08-15T03:44:33.062Z,3.700000048
2022-08-15T03:45:35.009Z,3.599999905
2022-08-15T03:46:32.302Z,3.400000095
2022-08-15T03:47:33.222Z,3.099999905
2022-08-15T03:48:34.388Z,3.700000048
2022-08-15T03:50:22.790Z,3.200000048
2022-08-15T03:50:43.094Z,3.5
2022-08-15T03:51:37.226Z,3.200000048
2022-08-15T03:52:38.095Z,3.599999905
2022-08-15T03:53:44.840Z,3.599999905
2022-08-15T03:54:39.695Z,3.299999952
2022-08-15T03:55:40.853Z,3.700000048
2022-08-15T03:56:42.047Z,3.700000048
2022-08-15T03:58:02.884Z,3.099999905
2022-08-15T03:58:44.121Z,3.5
2022-08-15T04:00:15.237Z,3.900000095
2022-08-15T04:01:16.147Z,3.599999905
2022-08-15T04:02:29.983Z,3.299999952
2022-08-15T04:03:18.659Z,3.700000048
2022-08-15T04:04:19.382Z,3.400000095
2022-08-15T04:05:23.102Z,3.599999905
2022-08-15T04:06:27.720Z,3.400000095
2022-08-15T04:07:23.517Z,3.200000048
2022-08-15T04:08:44.194Z,3.200000048
2022-08-15T04:09:26.305Z,3.400000095
2022-08-15T04:10:37.092Z,3.5
2022-08-15T04:11:35.139Z,3.200000048
2022-08-15T04:12:26.772Z,3.200000048
2022-08-15T04:13:27.617Z,3.400000095
2022-08-15T04:14:32.237Z,3.700000048
2022-08-15T04:15:30.555Z,3.299999952
2022-08-15T04:17:02.204Z,3.5
2022-08-15T04:17:57.375Z,3.5
2022-08-15T04:18:43.038Z,3.299999952
2022-08-15T04:19:47.301Z,3.700000048
2022-08-15T04:20:34.776Z,2.900000095
2022-08-15T04:21:35.654Z,3.700000048
2022-08-15T04:22:52.828Z,3.5
2022-08-15T04:23:37.343Z,3.599999905
2022-08-15T04:24:38.085Z,3.5
2022-08-15T04:25:42.980Z,3.700000048
2022-08-15T04:26:40.665Z,3.5
2022-08-15T04:27:44.433Z,3.700000048
2022-08-15T04:28:54.291Z,3.5
2022-08-15T04:29:44.775Z,3.200000048
2022-08-15T04:31:15.947Z,3.700000048
2022-08-15T04:32:29.168Z,3.599999905
2022-08-15T04:33:24.320Z,3.400000095
2022-08-15T04:34:48.500Z,4.199999809
2022-08-15T04:35:19.193Z,3.599999905
2022-08-15T04:36:20.702Z,4
2022-08-15T04:37:21.528Z,3.900000095
2022-08-15T04:38:22.432Z,4.099999905
2022-08-15T04:39:23.391Z,3.400000095
2022-08-15T04:41:17.656Z,3.400000095
2022-08-15T04:41:33.652Z,3.799999952
2022-08-15T04:42:26.579Z,3.599999905
2022-08-15T04:43:27.548Z,3.900000095
2022-08-15T04:44:28.981Z,4
2022-08-15T04:45:28.939Z,4.199999809
2022-08-15T04:46:30.637Z,4.199999809
2022-08-15T04:47:35.921Z,4.199999809
2022-08-15T04:48:34.456Z,4.099999905
2022-08-15T04:49:33.212Z,4.5
2022-08-15T04:50:33.934Z,4.599999905
2022-08-15T04:51:36.635Z,3.400000095
2022-08-15T04:52:37.260Z,3.799999952
2022-08-15T04:53:38.126Z,4.300000191
2022-08-15T04:54:39.144Z,4.199999809
2022-08-15T04:55:45.121Z,4.099999905
2022-08-15T04:56:47.196Z,4.300000191
2022-08-15T04:57:44.113Z,4.099999905
2022-08-15T04:59:34.166Z,4.199999809
2022-08-15T05:00:15.046Z,4.199999809
2022-08-15T05:01:16.155Z,3.799999952
2022-08-15T05:02:53.501Z,4.5
2022-08-15T05:03:17.512Z,4.300000191
2022-08-15T05:04:23.734Z,3.900000095
2022-08-15T05:05:19.061Z,3.599999905
2022-08-15T05:06:29.318Z,4
2022-08-15T05:07:21.626Z,4.099999905
2022-08-15T05:08:22.592Z,3.299999952
2022-08-15T05:09:23.609Z,3.900000095
2022-08-15T05:10:24.287Z,4.099999905
2022-08-15T05:11:25.011Z,3.900000095
2022-08-15T05:12:25.886Z,3.900000095
2022-08-15T05:13:26.739Z,3.5
2022-08-15T05:14:36.177Z,3.799999952
2022-08-15T05:15:31.724Z,3.599999905
2022-08-15T05:16:33.521Z,3.5
2022-08-15T05:17:57.756Z,3.700000048
2022-08-15T05:18:31.906Z,3.599999905
2022-08-15T05:19:32.816Z,4.099999905
2022-08-15T05:20:33.669Z,3.299999952
2022-08-15T05:21:43.869Z,3.799999952
2022-08-15T05:22:36.592Z,4.400000095
2022-08-15T05:23:42.852Z,3.799999952
2022-08-15T05:24:37.663Z,4
2022-08-15T05:25:42.080Z,4.599999905
2022-08-15T05:26:57.446Z,3.700000048
2022-08-15T05:27:44.575Z,4.5
2022-08-15T05:28:41.320Z,4.400000095
2022-08-15T05:29:42.285Z,4.300000191
2022-08-15T05:31:14.696Z,4.300000191
2022-08-15T05:32:18.526Z,4.199999809
2022-08-15T05:33:15.306Z,4.199999809
2022-08-15T05:34:37.138Z,4.199999809
2022-08-15T05:35:17.778Z,4.900000095
2022-08-15T05:36:27.302Z,4.300000191
2022-08-15T05:37:21.598Z,4.099999905
2022-08-15T05:38:26.090Z,4.400000095
2022-08-15T05:39:22.547Z,4.599999905
2022-08-15T05:40:24.285Z,4.199999809
2022-08-15T05:41:23.533Z,4.199999809
2022-08-15T05:42:31.673Z,4.400000095
2022-08-15T05:43:26.237Z,4.199999809
2022-08-15T05:44:39.402Z,4.099999905
2022-08-15T05:45:31.240Z,4.099999905
2022-08-15T05:46:29.306Z,5
2022-08-15T05:47:30.087Z,4.099999905
2022-08-15T05:48:34.133Z,4.599999905
2022-08-15T05:49:31.856Z,4.400000095
2022-08-15T05:50:32.696Z,4.099999905
2022-08-15T05:51:51.296Z,3.900000095
2022-08-15T05:52:47.948Z,4.199999809
2022-08-15T05:53:35.744Z,4.199999809
2022-08-15T05:54:36.661Z,4.400000095
2022-08-15T05:55:38.295Z,4.300000191
2022-08-15T05:56:39.818Z,4.599999905
2022-08-15T05:57:40.614Z,4.599999905
2022-08-15T05:58:44.650Z,4.300000191
2022-08-15T05:59:48.295Z,4.699999809
2022-08-15T06:01:14.697Z,4.5
2022-08-15T06:02:36.918Z,4.400000095
2022-08-15T06:03:15.976Z,4.300000191
2022-08-15T06:04:30.641Z,4.400000095
2022-08-15T06:05:17.717Z,4.800000191
2022-08-15T06:06:26.629Z,4.5
2022-08-15T06:07:20.170Z,4.300000191
2022-08-15T06:08:50.048Z,4.5
2022-08-15T06:09:22.430Z,4.199999809
2022-08-15T06:10:35.589Z,5.199999809
2022-08-15T06:11:24.329Z,4.699999809
2022-08-15T06:12:26.585Z,4.199999809
2022-08-15T06:13:25.969Z,4.5
2022-08-15T06:14:35.300Z,4.699999809
2022-08-15T06:15:32.554Z,4.300000191
2022-08-15T06:16:46.317Z,4.5
2022-08-15T06:17:30.026Z,4.400000095
2022-08-15T06:18:30.851Z,4.599999905
2022-08-15T06:19:34.436Z,4.800000191
2022-08-15T06:20:38.665Z,4
2022-08-15T06:21:33.468Z,4
2022-08-15T06:22:34.803Z,4.400000095
2022-08-15T06:23:36.477Z,4.699999809
2022-08-15T06:24:36.607Z,5
2022-08-15T06:25:38.100Z,3.900000095
2022-08-15T06:26:40.964Z,4.400000095
2022-08-15T06:27:40.327Z,4.199999809
2022-08-15T06:28:54.152Z,5
2022-08-15T06:29:41.356Z,4.699999809
2022-08-15T06:30:44.809Z,4.099999905
2022-08-15T06:32:23.023Z,4.800000191
2022-08-15T06:33:17.252Z,4.599999905
2022-08-15T06:34:54.815Z,4.900000095
2022-08-15T06:35:16.782Z,4.599999905
2022-08-15T06:36:17.695Z,4
2022-08-15T06:37:19.225Z,5.199999809
2022-08-15T06:38:37.194Z,4.400000095
2022-08-15T06:39:20.918Z,4.5
2022-08-15T06:40:27.989Z,4.5
2022-08-15T06:41:25.013Z,4.699999809
2022-08-15T06:42:23.291Z,4.599999905
2022-08-15T06:43:24.022Z,4.800000191
2022-08-15T06:44:30.812Z,4.300000191
2022-08-15T06:45:25.752Z,4.5
2022-08-15T06:46:46.990Z,4.099999905
2022-08-15T06:47:28.239Z,4.300000191
2022-08-15T06:48:54.974Z,4.800000191
2022-08-15T06:49:36.152Z,4.699999809
2022-08-15T06:50:31.389Z,4.599999905
2022-08-15T06:51:45.382Z,4.300000191
2022-08-15T06:52:33.850Z,4.400000095
2022-08-15T06:53:34.588Z,4.699999809
2022-08-15T06:54:39.120Z,4.900000095
2022-08-15T06:55:37.210Z,4.199999809
2022-08-15T06:56:37.867Z,4.599999905
2022-08-15T06:57:38.705Z,4.5
2022-08-15T06:58:54.993Z,5
2022-08-15T06:59:41.011Z,5.199999809
2022-08-15T07:00:45.534Z,4.699999809
2022-08-15T07:02:17.937Z,4.099999905
2022-08-15T07:03:14.810Z,4.5
2022-08-15T07:04:15.543Z,4.599999905
2022-08-15T07:05:25.261Z,4.5
2022-08-15T07:06:17.366Z,4.599999905
2022-08-15T07:07:18.813Z,4.800000191
2022-08-15T07:08:19.691Z,4.300000191
2022-08-15T07:09:23.466Z,4.5
2022-08-15T07:10:21.355Z,4.5
2022-08-15T07:11:22.524Z,4.900000095
2022-08-15T07:12:36.550Z,4.5
2022-08-15T07:13:23.859Z,4.599999905
2022-08-15T07:14:24.633Z,4.5
2022-08-15T07:15:25.504Z,5.099999905
2022-08-15T07:16:27.973Z,4.900000095
2022-08-15T07:17:32.825Z,4.400000095
2022-08-15T07:18:33.135Z,4.199999809
2022-08-15T07:19:34.692Z,4.5
2022-08-15T07:20:38.334Z,4.599999905
2022-08-15T07:21:52.316Z,5.300000191
2022-08-15T07:22:35.204Z,4.900000095
2022-08-15T07:23:33.194Z,4.5
2022-08-15T07:24:36.135Z,4.199999809
2022-08-15T07:25:35.331Z,4.400000095
2022-08-15T07:26:36.273Z,4.699999809
2022-08-15T07:27:37.928Z,5.099999905
2022-08-15T07:28:43.230Z,4.199999809
2022-08-15T07:29:40.345Z,4.599999905
2022-08-15T07:30:40.090Z,3.900000095
2022-08-15T07:32:00.049Z,4.699999809
2022-08-15T07:32:42.733Z,4.300000191
2022-08-15T07:34:20.075Z,3.900000095
2022-08-15T07:35:15.237Z,4.199999809
2022-08-15T07:36:29.412Z,4.099999905
2022-08-15T07:37:17.868Z,4.300000191
2022-08-15T07:38:22.144Z,4.5
2022-08-15T07:39:19.504Z,4.300000191
2022-08-15T07:40:28.750Z,4.300000191
2022-08-15T07:41:21.163Z,4.199999809
2022-08-15T07:42:28.743Z,4.099999905
2022-08-15T07:43:23.709Z,3.799999952
2022-08-15T07:44:24.459Z,4.599999905
2022-08-15T07:45:25.727Z,4.400000095
2022-08-15T07:46:26.042Z,3.900000095
2022-08-15T07:47:27.784Z,3.900000095
2022-08-15T07:48:29.345Z,4.199999809
2022-08-15T07:49:30.173Z,4.199999809
2022-08-15T07:50:36.543Z,4
2022-08-15T07:51:33.831Z,4.199999809
2022-08-15T07:52:54.381Z,4.199999809
2022-08-15T07:54:50.144Z,4.699999809
2022-08-15T07:56:14.358Z,4.5
2022-08-15T07:56:46.299Z,3.799999952
2022-08-15T07:57:52.490Z,3.700000048
2022-08-15T07:58:40.061Z,3.200000048
2022-08-15T07:59:54.465Z,3.799999952
2022-08-15T08:00:45.971Z,3.599999905
2022-08-15T08:02:29.903Z,3.700000048
2022-08-15T08:03:14.799Z,3.599999905
2022-08-15T08:04:23.400Z,3.5
2022-08-15T08:06:34.175Z,3.900000095
2022-08-15T08:07:34.340Z,4
2022-08-15T08:08:45.378Z,3.599999905
2022-08-15T08:09:19.980Z,3.700000048
2022-08-15T08:10:24.670Z,4
2022-08-15T08:11:23.650Z,3.799999952
2022-08-15T08:12:35.382Z,4.199999809
2022-08-15T08:13:29.209Z,3.5
2022-08-15T08:14:39.491Z,3.799999952
2022-08-15T08:15:42.435Z,3
2022-08-15T08:16:31.188Z,3.200000048
2022-08-15T08:17:42.374Z,4.199999809
2022-08-15T08:18:29.284Z,4
2022-08-15T08:19:30.061Z,3.599999905
2022-08-15T08:20:30.803Z,5.099999905
2022-08-15T08:21:31.667Z,4
2022-08-15T08:22:33.347Z,3.400000095
2022-08-15T08:23:34.465Z,3.5
2022-08-15T08:24:34.959Z,3.900000095
2022-08-15T08:26:03.565Z,4.300000191
2022-08-15T08:26:36.754Z,3.5
2022-08-15T08:27:47.489Z,3.5
2022-08-15T08:28:39.314Z,3.700000048
2022-08-15T08:29:40.055Z,3.599999905
2022-08-15T08:30:44.201Z,3.299999952
2022-08-15T08:31:42.525Z,3.400000095
2022-08-15T08:33:13.741Z,3.599999905
2022-08-15T08:34:32.317Z,3.5
2022-08-15T08:35:16.345Z,4.099999905
2022-08-15T08:36:35.703Z,5.199999809
2022-08-15T08:37:17.873Z,4
2022-08-15T08:38:58.636Z,3.900000095
2022-08-15T08:39:19.662Z,3.900000095
2022-08-15T08:40:20.422Z,6.400000095
2022-08-15T08:41:21.206Z,4.199999809
2022-08-15T08:42:22.038Z,3.799999952
2022-08-15T08:43:22.870Z,3.5
2022-08-15T08:44:23.690Z,3.099999905
2022-08-15T08:45:24.453Z,3.900000095
2022-08-15T08:46:30.703Z,3.5
2022-08-15T08:47:26.886Z,2.900000095
2022-08-15T08:48:27.891Z,2.900000095
2022-08-15T08:50:34.382Z,3.5
2022-08-15T08:50:34.536Z,3.200000048
2022-08-15T08:51:31.074Z,3.299999952
2022-08-15T08:52:31.897Z,3
2022-08-15T08:53:33.338Z,3.599999905
2022-08-15T08:54:52.762Z,3.5
2022-08-15T08:55:45.799Z,4.099999905
2022-08-15T08:56:35.876Z,4
2022-08-15T08:57:37.370Z,3.5
2022-08-15T08:58:44.662Z,4.699999809
2022-08-15T08:59:38.936Z,5.5
2022-08-15T09:00:39.654Z,11.69999981
2022-08-15T09:01:40.433Z,27
2022-08-15T09:02:41.103Z,7.099999905
2022-08-15T09:04:12.872Z,26
2022-08-15T09:05:13.500Z,35.20000076
2022-08-15T09:06:26.102Z,16.5
2022-08-15T09:07:14.963Z,13.80000019
2022-08-15T09:08:16.340Z,5.400000095
2022-08-15T09:09:22.953Z,3.900000095
2022-08-15T09:10:27.602Z,3.700000048
2022-08-15T09:11:19.017Z,3.700000048
2022-08-15T09:12:19.882Z,3.700000048
2022-08-15T09:13:20.679Z,3.700000048
2022-08-15T09:14:32.597Z,3.799999952
2022-08-15T09:15:22.379Z,3.900000095
2022-08-15T09:16:24.854Z,5
2022-08-15T09:17:30.551Z,5.099999905
2022-08-15T09:18:27.373Z,3.700000048
2022-08-15T09:19:29.744Z,3.900000095
2022-08-15T09:20:34.086Z,3.400000095
2022-08-15T09:21:38.185Z,3.599999905
2022-08-15T09:22:29.355Z,3.900000095
2022-08-15T09:23:32.967Z,3.599999905
2022-08-15T09:24:37.711Z,3.700000048
2022-08-15T09:25:31.528Z,4
2022-08-15T09:26:32.265Z,3.799999952
2022-08-15T09:27:33.793Z,3.900000095
2022-08-15T09:28:36.351Z,4.400000095
2022-08-15T09:29:36.222Z,3.799999952
2022-08-15T09:30:49.573Z,4.699999809
2022-08-15T09:31:40.915Z,3.5
2022-08-15T09:32:38.647Z,3.5
2022-08-15T09:33:39.528Z,3.5
2022-08-15T09:34:40.141Z,3.599999905
2022-08-15T09:35:41.516Z,3.900000095
2022-08-15T09:37:13.761Z,3.5
2022-08-15T09:38:25.320Z,3.299999952
2022-08-15T09:39:14.603Z,3.900000095
2022-08-15T09:40:58.438Z,3.299999952
2022-08-15T09:41:20.200Z,3.5
2022-08-15T09:42:34.336Z,4.099999905
2022-08-15T09:43:17.780Z,3.799999952
2022-08-15T09:44:37.035Z,3.700000048
2022-08-15T09:45:19.488Z,4.099999905
2022-08-15T09:46:36.177Z,3.900000095
2022-08-15T09:47:27.034Z,3.700000048
2022-08-15T09:48:23.959Z,3.900000095
2022-08-15T09:49:24.860Z,2.900000095
2022-08-15T09:50:35.219Z,3.400000095
2022-08-15T09:51:26.624Z,2.799999952
2022-08-15T09:52:35.886Z,3.299999952
2022-08-15T09:53:52.405Z,2.900000095
2022-08-15T09:54:40.017Z,3
2022-08-15T09:55:32.557Z,3
2022-08-15T09:56:31.306Z,3
2022-08-15T09:57:32.242Z,2.900000095
2022-08-15T09:58:33.847Z,3
2022-08-15T09:59:34.665Z,3.400000095
2022-08-15T10:00:35.698Z,3.099999905
2022-08-15T10:01:38.390Z,3.200000048
2022-08-15T10:02:39.930Z,3.400000095
2022-08-15T10:03:39.415Z,3.400000095
2022-08-15T10:04:40.137Z,3.700000048
2022-08-15T10:05:41.351Z,3.200000048
2022-08-15T10:07:13.234Z,3.299999952
2022-08-15T10:08:13.917Z,3.700000048
2022-08-15T10:09:14.795Z,3.099999905
2022-08-15T10:10:15.597Z,2.900000095
2022-08-15T10:11:16.412Z,3.400000095
2022-08-15T10:12:17.186Z,3.400000095
2022-08-15T10:13:18.009Z,3.299999952
2022-08-15T10:14:18.882Z,3.799999952
2022-08-15T10:15:19.715Z,3.5
2022-08-15T10:16:20.611Z,3.799999952
2022-08-15T10:17:22.372Z,3.200000048
2022-08-15T10:18:23.921Z,3.599999905
2022-08-15T10:19:24.809Z,3.099999905
2022-08-15T10:20:25.604Z,3.799999952
2022-08-15T10:21:26.405Z,3.5
2022-08-15T10:22:45.101Z,3.299999952
2022-08-15T10:23:28.821Z,3.099999905
2022-08-15T10:24:30.014Z,3.700000048
2022-08-15T10:25:30.565Z,3.400000095
2022-08-15T10:26:34.246Z,3.900000095
2022-08-15T10:27:32.125Z,3.799999952
2022-08-15T10:28:36.623Z,5.199999809
2022-08-15T10:29:35.605Z,5.400000095
2022-08-15T10:30:45.796Z,5.199999809
2022-08-15T10:31:52.672Z,3.700000048
2022-08-15T10:32:56.648Z,3.5
2022-08-15T10:33:37.955Z,3.799999952
2022-08-15T10:34:38.160Z,3.299999952
2022-08-15T10:35:38.901Z,3.200000048
2022-08-15T10:36:41.668Z,2.900000095
2022-08-15T10:37:44.232Z,3.400000095
2022-08-15T10:39:15.207Z,3.200000048
2022-08-15T10:40:17.141Z,3
2022-08-15T10:41:14.727Z,3.099999905
2022-08-15T10:42:22.535Z,3.099999905
2022-08-15T10:43:15.319Z,2.900000095
2022-08-15T10:44:35.471Z,2.599999905
2022-08-15T10:45:16.831Z,3.299999952
2022-08-15T10:46:17.530Z,2.700000048
2022-08-15T10:47:18.263Z,3.5
2022-08-15T10:48:44.534Z,4.099999905
2022-08-15T10:49:25.951Z,3.299999952
2022-08-15T10:50:23.816Z,2.799999952
2022-08-15T10:51:22.795Z,2.799999952
2022-08-15T10:52:24.476Z,3.299999952
2022-08-15T10:53:24.264Z,3.099999905
2022-08-15T10:54:24.977Z,3.200000048
2022-08-15T10:55:55.755Z,3.400000095
2022-08-15T10:57:06.324Z,3.5
2022-08-15T10:57:27.295Z,3.099999905
2022-08-15T10:58:30.049Z,4.099999905
2022-08-15T10:59:29.590Z,3.099999905
2022-08-15T11:00:37.595Z,3.299999952
2022-08-15T11:01:31.775Z,3.200000048
2022-08-15T11:02:37.552Z,2.900000095
2022-08-15T11:04:47.369Z,2.900000095
2022-08-15T11:04:50.227Z,2.799999952
2022-08-15T11:05:34.709Z,2.900000095
2022-08-15T11:06:35.383Z,3.299999952
2022-08-15T11:07:36.517Z,3.400000095
2022-08-15T11:08:37.869Z,3
2022-08-15T11:09:39.209Z,3.099999905
2022-08-15T11:10:39.372Z,2.700000048
2022-08-15T11:11:40.703Z,3.099999905
2022-08-15T11:13:14.135Z,2.900000095
2022-08-15T11:14:20.787Z,2.599999905
2022-08-15T11:15:22.901Z,3.099999905
2022-08-15T11:16:32.382Z,5.5
2022-08-15T11:17:14.932Z,3.5
2022-08-15T11:18:21.270Z,3.200000048
2022-08-15T11:19:48.710Z,3.400000095
2022-08-15T11:20:18.085Z,3.299999952
2022-08-15T11:21:18.803Z,3.200000048
2022-08-15T11:22:19.378Z,2.799999952
2022-08-15T11:23:20.847Z,2.799999952
2022-08-15T11:24:21.614Z,3.299999952
2022-08-15T11:25:23.274Z,3.400000095
2022-08-15T11:26:27.618Z,3.700000048
2022-08-15T11:27:24.504Z,3.299999952
2022-08-15T11:28:36.824Z,3.5
2022-08-15T11:29:26.051Z,3.299999952
2022-08-15T11:30:31.251Z,3.099999905
2022-08-15T11:31:36.602Z,2.799999952
2022-08-15T11:32:28.976Z,3
2022-08-15T11:33:29.682Z,2.599999905
2022-08-15T11:34:42.409Z,3.200000048
2022-08-15T11:35:31.746Z,3
2022-08-15T11:36:32.477Z,2.900000095
2022-08-15T11:37:33.137Z,3.5
2022-08-15T11:38:35.609Z,3.700000048
2022-08-15T11:39:35.615Z,3.400000095
2022-08-15T11:40:36.323Z,3.799999952
2022-08-15T11:41:37.108Z,3.599999905